Time;durP1;ratioP1;P1;durP2;ratioP2;P2;SDS_P1;SDS_P2;PMS_P1;PMS_P2;Temp;Humidity;BMP_temperature;BMP_pressure;BME280_temperature;BME280_humidity;BME280_pressure;Samples;Min_cycle;Max_cycle;Signal;HPM_P1;HPM_P2
2023/09/22 00:00:10;;;;;;;0.88;0.80;;;22.90;61.60;;;;;;5054139;28;20196;-77
2023/09/22 00:02:37;;;;;;;1.38;0.85;;;23.00;61.70;;;;;;5054543;28;20188;-77
2023/09/22 00:05:06;;;;;;;0.75;0.75;;;23.00;61.70;;;;;;5053908;28;20191;-77
2023/09/22 00:07:35;;;;;;;0.70;0.70;;;23.00;61.70;;;;;;5053835;28;20199;-77
2023/09/22 00:10:04;;;;;;;0.70;0.70;;;22.90;61.60;;;;;;5053904;28;20649;-77
2023/09/22 00:12:32;;;;;;;0.80;0.80;;;22.90;61.60;;;;;;5054015;28;20199;-77
2023/09/22 00:14:59;;;;;;;0.70;0.70;;;22.90;61.60;;;;;;5053546;28;20205;-77
2023/09/22 00:17:26;;;;;;;0.63;0.60;;;22.90;61.60;;;;;;5053742;28;20289;-77
2023/09/22 00:19:52;;;;;;;1.42;0.80;;;22.90;61.60;;;;;;5053575;28;20669;-77
2023/09/22 00:25:09;;;;;;;0.80;0.80;;;22.90;61.60;;;;;;5156213;27;20658;-77
2023/09/22 00:27:35;;;;;;;1.02;0.65;;;22.90;61.60;;;;;;5153632;27;20200;-78
2023/09/22 00:30:03;;;;;;;1.33;0.90;;;22.90;61.60;;;;;;5135103;27;20565;-78
2023/09/22 00:32:30;;;;;;;0.93;0.65;;;22.90;61.60;;;;;;5134739;27;20215;-78
2023/09/22 00:34:57;;;;;;;0.70;0.70;;;22.80;61.50;;;;;;5134378;27;20230;-78
2023/09/22 00:37:24;;;;;;;0.73;0.73;;;22.90;61.60;;;;;;5152969;27;20187;-78
2023/09/22 00:39:51;;;;;;;0.60;0.60;;;22.90;61.60;;;;;;5134397;27;20192;-78
2023/09/22 00:42:20;;;;;;;0.70;0.70;;;22.90;61.70;;;;;;5134305;27;20188;-78
2023/09/22 00:44:47;;;;;;;0.80;0.80;;;22.80;61.60;;;;;;5134551;27;20216;-78
2023/09/22 00:47:14;;;;;;;0.50;0.50;;;22.80;61.60;;;;;;5134295;27;20223;-78
2023/09/22 00:49:41;;;;;;;1.30;0.90;;;22.80;61.70;;;;;;5134333;27;20196;-78
2023/09/22 00:52:09;;;;;;;0.80;0.70;;;22.80;61.80;;;;;;5133893;27;20188;-78
2023/09/22 00:54:35;;;;;;;0.60;0.60;;;22.80;61.80;;;;;;5133919;27;20192;-78
2023/09/22 00:57:04;;;;;;;0.65;0.65;;;22.70;61.70;;;;;;5133933;27;20239;-78
2023/09/22 00:59:32;;;;;;;0.45;0.45;;;22.70;61.70;;;;;;5134087;27;20286;-78
2023/09/22 01:01:59;;;;;;;1.50;0.70;;;22.70;61.80;;;;;;5133871;27;20225;-78
2023/09/22 01:04:26;;;;;;;0.77;0.55;;;22.70;61.80;;;;;;5116925;27;20685;-78
2023/09/22 01:06:53;;;;;;;1.08;0.68;;;22.80;62.00;;;;;;5134018;27;20208;-78
2023/09/22 01:09:20;;;;;;;0.80;0.80;;;22.70;61.90;;;;;;5099909;27;20256;-78
2023/09/22 01:11:47;;;;;;;1.05;0.80;;;22.70;62.00;;;;;;5117799;27;20651;-78
2023/09/22 01:14:14;;;;;;;0.77;0.77;;;22.70;62.00;;;;;;5134373;27;20283;-78
2023/09/22 01:16:43;;;;;;;0.63;0.63;;;22.70;62.00;;;;;;5133626;27;20239;-78
2023/09/22 01:19:14;;;;;;;1.15;0.75;;;22.70;62.00;;;;;;5133495;27;20199;-78
2023/09/22 01:21:43;;;;;;;0.63;0.63;;;22.70;62.00;;;;;;5133344;27;20203;-78
2023/09/22 01:24:10;;;;;;;0.68;0.60;;;22.70;62.10;;;;;;5133359;27;20632;-79
2023/09/22 01:26:38;;;;;;;1.17;0.70;;;22.70;62.10;;;;;;5133267;27;20678;-79
2023/09/22 01:29:05;;;;;;;0.70;0.43;;;22.70;62.10;;;;;;5133714;27;20195;-79
2023/09/22 01:31:34;;;;;;;1.77;0.80;;;22.60;62.00;;;;;;5133429;27;20252;-79
2023/09/22 01:34:01;;;;;;;0.68;0.55;;;22.70;62.20;;;;;;5133782;27;20193;-78
2023/09/22 01:36:29;;;;;;;1.10;0.70;;;22.60;62.10;;;;;;5119617;27;20217;-78
2023/09/22 01:39:00;;;;;;;0.88;0.73;;;22.60;62.20;;;;;;5119638;27;20215;-79
2023/09/22 01:41:27;;;;;;;0.70;0.55;;;22.60;62.20;;;;;;5119591;27;20611;-79
2023/09/22 01:43:54;;;;;;;0.60;0.60;;;22.70;62.30;;;;;;5120976;27;20209;-79
2023/09/22 01:46:21;;;;;;;0.90;0.90;;;22.60;62.20;;;;;;5121529;27;20209;-79
2023/09/22 01:48:49;;;;;;;0.70;0.70;;;22.60;62.20;;;;;;5120080;27;20231;-79
2023/09/22 01:51:17;;;;;;;0.70;0.70;;;22.60;62.20;;;;;;5138717;27;20271;-77
2023/09/22 01:53:44;;;;;;;0.55;0.55;;;22.60;62.20;;;;;;5119500;27;20214;-77
2023/09/22 01:56:12;;;;;;;1.10;0.80;;;22.60;62.30;;;;;;5102510;27;20213;-77
2023/09/22 01:58:40;;;;;;;0.82;0.70;;;22.60;62.30;;;;;;5119213;27;20655;-78
2023/09/22 02:01:07;;;;;;;0.90;0.80;;;22.60;62.40;;;;;;5119385;27;20665;-78
2023/09/22 02:03:34;;;;;;;0.75;0.63;;;22.60;62.30;;;;;;5119048;27;20224;-78
2023/09/22 02:06:04;;;;;;;0.70;0.65;;;22.60;62.30;;;;;;5119476;27;20221;-78
2023/09/22 02:08:31;;;;;;;0.73;0.73;;;22.60;62.40;;;;;;5119528;27;20208;-78
2023/09/22 02:10:58;;;;;;;0.80;0.80;;;22.60;62.40;;;;;;5118875;27;20197;-78
2023/09/22 02:13:29;;;;;;;0.93;0.70;;;22.50;62.30;;;;;;5119298;27;20261;-78
2023/09/22 02:15:56;;;;;;;0.60;0.60;;;22.60;62.40;;;;;;5118852;27;20238;-78
2023/09/22 02:18:24;;;;;;;1.33;0.80;;;22.60;62.40;;;;;;5101947;27;20192;-78
2023/09/22 02:20:52;;;;;;;0.73;0.73;;;22.50;62.30;;;;;;5118831;27;20237;-78
2023/09/22 02:23:19;;;;;;;0.80;0.80;;;22.50;62.30;;;;;;5118513;27;20230;-78
2023/09/22 02:25:46;;;;;;;0.80;0.57;;;22.60;62.40;;;;;;5118621;27;20217;-78
2023/09/22 02:28:13;;;;;;;0.65;0.65;;;22.50;62.30;;;;;;5102165;27;20193;-78
2023/09/22 02:30:42;;;;;;;0.80;0.80;;;22.50;62.30;;;;;;5118729;27;20216;-78
2023/09/22 02:33:09;;;;;;;0.60;0.60;;;22.50;62.30;;;;;;5118415;27;20207;-78
2023/09/22 02:35:40;;;;;;;0.75;0.73;;;22.50;62.30;;;;;;5118558;27;20205;-78
2023/09/22 02:38:07;;;;;;;0.88;0.63;;;22.50;62.30;;;;;;5118417;27;20666;-78
2023/09/22 02:40:34;;;;;;;0.50;0.50;;;22.50;62.40;;;;;;5118346;27;20189;-78
2023/09/22 02:43:01;;;;;;;0.88;0.80;;;22.40;62.30;;;;;;5136745;27;20191;-78
2023/09/22 02:45:28;;;;;;;0.75;0.75;;;22.40;62.20;;;;;;5101393;27;20277;-78
2023/09/22 02:47:57;;;;;;;0.65;0.60;;;22.40;62.20;;;;;;5100119;27;20219;-78
2023/09/22 02:50:24;;;;;;;0.70;0.70;;;22.50;62.40;;;;;;5117998;27;20204;-78
2023/09/22 02:52:51;;;;;;;0.75;0.75;;;22.40;62.30;;;;;;5118262;27;20199;-78
2023/09/22 02:55:18;;;;;;;0.68;0.68;;;22.40;62.30;;;;;;5117889;27;20212;-78
2023/09/22 02:57:47;;;;;;;1.00;0.68;;;22.40;62.30;;;;;;5117966;27;20715;-78
2023/09/22 03:00:20;;;;;;;1.02;0.77;;;22.40;62.40;;;;;;5118726;27;20223;-78
2023/09/22 03:02:48;;;;;;;1.25;0.77;;;22.40;62.30;;;;;;5101721;27;20283;-78
2023/09/22 03:05:16;;;;;;;0.73;0.70;;;22.40;62.30;;;;;;5101139;27;20269;-78
2023/09/22 03:07:46;;;;;;;1.10;1.00;;;22.40;62.20;;;;;;5118539;27;20189;-78
2023/09/22 03:10:13;;;;;;;0.70;0.70;;;22.40;62.20;;;;;;5117546;27;20189;-78
2023/09/22 03:12:39;;;;;;;0.70;0.70;;;22.40;62.20;;;;;;5117520;27;20227;-78
2023/09/22 03:15:09;;;;;;;0.82;0.77;;;22.40;62.20;;;;;;5118385;27;20184;-78
2023/09/22 03:17:37;;;;;;;0.88;0.88;;;22.40;62.20;;;;;;5117885;27;20251;-78
2023/09/22 03:20:07;;;;;;;0.70;0.70;;;22.40;62.20;;;;;;5117542;27;20192;-78
2023/09/22 03:22:35;;;;;;;0.60;0.60;;;22.50;62.20;;;;;;5117152;27;20611;-78
2023/09/22 03:25:03;;;;;;;0.77;0.75;;;22.50;61.90;;;;;;5117160;27;20227;-78
2023/09/22 03:27:32;;;;;;;1.48;0.70;;;22.50;61.80;;;;;;5117634;27;20193;-78
2023/09/22 03:29:59;;;;;;;0.70;0.70;;;22.50;61.70;;;;;;5100540;27;20216;-78
2023/09/22 03:32:27;;;;;;;1.02;0.80;;;22.60;61.50;;;;;;5117381;27;20192;-78
2023/09/22 03:34:54;;;;;;;0.60;0.60;;;22.70;61.40;;;;;;5117053;27;20199;-78
2023/09/22 03:37:21;;;;;;;0.80;0.60;;;22.70;61.30;;;;;;5117231;27;20275;-78
2023/09/22 03:39:50;;;;;;;0.68;0.60;;;22.70;61.20;;;;;;5116969;27;20651;-78
2023/09/22 03:42:17;;;;;;;0.70;0.70;;;22.70;61.00;;;;;;5118270;27;20195;-78
2023/09/22 03:44:44;;;;;;;2.17;0.88;;;22.70;61.00;;;;;;5117851;27;20304;-78
2023/09/22 03:47:11;;;;;;;0.80;0.77;;;22.80;61.00;;;;;;5117466;27;20208;-78
2023/09/22 03:49:39;;;;;;;0.80;0.70;;;22.70;60.80;;;;;;5117066;27;20200;-78
2023/09/22 03:52:06;;;;;;;0.60;0.60;;;22.80;60.90;;;;;;5118584;27;20200;-78
2023/09/22 03:54:33;;;;;;;1.30;0.80;;;22.80;60.80;;;;;;5117256;27;20539;-78
2023/09/22 03:57:01;;;;;;;1.50;0.80;;;22.80;60.80;;;;;;5117352;27;20220;-78
2023/09/22 03:59:29;;;;;;;2.22;0.70;;;22.80;60.80;;;;;;5100553;27;20570;-78
2023/09/22 04:01:56;;;;;;;0.70;0.70;;;22.80;60.70;;;;;;5116935;27;20282;-78
2023/09/22 04:04:24;;;;;;;2.30;0.90;;;22.90;60.70;;;;;;5117358;27;20299;-78
2023/09/22 04:06:51;;;;;;;0.68;0.68;;;22.80;60.70;;;;;;5100068;27;20217;-78
2023/09/22 04:09:18;;;;;;;0.82;0.70;;;22.80;60.60;;;;;;5116824;27;20287;-78
2023/09/22 04:11:45;;;;;;;1.30;0.60;;;22.80;60.60;;;;;;5117118;28;20563;-78
2023/09/22 04:14:13;;;;;;;1.23;0.93;;;22.80;60.50;;;;;;5116611;27;20192;-78
2023/09/22 04:16:41;;;;;;;1.70;0.90;;;22.80;60.50;;;;;;5099700;28;20221;-78
2023/09/22 04:19:09;;;;;;;1.08;0.98;;;22.80;60.60;;;;;;5117076;27;20216;-78
2023/09/22 04:21:42;;;;;;;0.80;0.80;;;22.80;60.50;;;;;;5116775;28;20192;-78
2023/09/22 04:24:09;;;;;;;0.73;0.73;;;22.80;60.60;;;;;;5116479;28;20214;-78
2023/09/22 04:26:42;;;;;;;1.95;0.90;;;22.80;60.70;;;;;;5116587;28;20216;-78
2023/09/22 04:29:09;;;;;;;0.80;0.80;;;22.80;60.60;;;;;;5101137;28;20615;-78
2023/09/22 04:31:37;;;;;;;0.93;0.77;;;22.70;60.50;;;;;;5116174;28;20555;-78
2023/09/22 04:34:04;;;;;;;1.10;0.80;;;22.70;60.50;;;;;;5116512;28;20201;-78
2023/09/22 04:36:32;;;;;;;1.80;1.00;;;22.70;60.60;;;;;;5117659;28;20694;-79
2023/09/22 04:39:00;;;;;;;0.88;0.77;;;22.70;60.70;;;;;;5116495;28;20289;-78
2023/09/22 04:41:26;;;;;;;0.80;0.80;;;22.80;60.80;;;;;;5117048;28;20189;-79
2023/09/22 04:43:54;;;;;;;2.25;0.90;;;22.70;59.90;;;;;;5116997;28;20207;-79
2023/09/22 04:46:20;;;;;;;1.27;1.05;;;22.70;59.80;;;;;;5117709;28;20666;-79
2023/09/22 04:48:49;;;;;;;1.02;0.93;;;22.70;60.40;;;;;;5117200;28;20197;-79
2023/09/22 04:51:16;;;;;;;1.05;0.98;;;22.70;60.90;;;;;;5117653;28;20197;-79
2023/09/22 04:53:43;;;;;;;2.00;0.93;;;22.70;61.30;;;;;;5117942;28;20218;-79
2023/09/22 04:56:10;;;;;;;0.98;0.90;;;22.60;61.10;;;;;;5100378;28;20220;-79
2023/09/22 04:58:38;;;;;;;2.85;0.80;;;22.60;61.70;;;;;;5135005;28;20223;-79
2023/09/22 05:01:05;;;;;;;1.25;0.80;;;22.60;60.90;;;;;;5100134;28;20672;-79
2023/09/22 05:03:32;;;;;;;1.88;0.75;;;22.70;61.30;;;;;;5116639;28;20219;-79
2023/09/22 05:06:06;;;;;;;2.17;1.00;;;22.60;60.90;;;;;;5117603;28;20228;-79
2023/09/22 05:08:33;;;;;;;1.23;0.82;;;22.60;61.00;;;;;;5100301;28;20249;-79
2023/09/22 05:11:03;;;;;;;0.82;0.82;;;22.60;61.20;;;;;;5119545;27;20196;-80
2023/09/22 05:13:30;;;;;;;1.27;0.93;;;22.60;61.00;;;;;;5120791;27;20249;-79
2023/09/22 05:16:05;;;;;;;1.75;1.00;;;22.60;61.20;;;;;;5120740;27;20283;-79
2023/09/22 05:18:33;;;;;;;1.95;1.00;;;22.60;60.80;;;;;;5121218;27;20245;-79
2023/09/22 05:21:00;;;;;;;1.80;1.00;;;22.50;59.70;;;;;;5120152;27;20366;-79
2023/09/22 05:23:29;;;;;;;0.85;0.80;;;22.50;59.50;;;;;;5120724;27;20605;-79
2023/09/22 05:25:56;;;;;;;1.00;0.90;;;22.50;59.40;;;;;;5119885;27;20220;-79
2023/09/22 05:28:23;;;;;;;0.82;0.82;;;22.50;59.40;;;;;;5120055;27;20208;-79
2023/09/22 05:30:50;;;;;;;1.05;1.00;;;22.50;59.40;;;;;;5120097;27;20685;-79
2023/09/22 05:33:17;;;;;;;1.85;1.02;;;22.50;59.40;;;;;;5120050;27;20192;-79
2023/09/22 05:35:44;;;;;;;1.13;1.02;;;22.40;59.30;;;;;;5119950;27;20208;-79
2023/09/22 05:38:12;;;;;;;1.00;1.00;;;22.40;59.30;;;;;;5102918;27;20205;-79
2023/09/22 05:40:40;;;;;;;1.60;1.20;;;22.40;59.30;;;;;;5119693;27;20197;-79
2023/09/22 05:43:10;;;;;;;1.10;0.93;;;22.40;59.30;;;;;;5120082;27;20246;-78
2023/09/22 05:45:37;;;;;;;4.03;1.23;;;22.40;59.40;;;;;;5120486;27;20582;-78
2023/09/22 05:48:05;;;;;;;0.90;0.90;;;22.40;59.30;;;;;;5119576;27;20193;-78
2023/09/22 05:50:32;;;;;;;2.08;0.90;;;22.30;59.90;;;;;;5119583;27;20195;-78
2023/09/22 05:52:58;;;;;;;1.17;1.08;;;22.40;60.00;;;;;;5119190;27;20207;-78
2023/09/22 05:55:27;;;;;;;1.38;0.90;;;22.30;59.90;;;;;;5137296;27;20629;-78
2023/09/22 05:57:56;;;;;;;1.10;1.00;;;22.30;60.00;;;;;;5118890;27;20228;-78
2023/09/22 06:00:26;;;;;;;1.10;1.00;;;22.30;60.00;;;;;;5118858;27;20220;-78
2023/09/22 06:02:53;;;;;;;1.02;0.90;;;22.30;60.00;;;;;;5101771;27;20196;-78
2023/09/22 06:05:21;;;;;;;1.15;1.05;;;22.30;59.90;;;;;;5118872;27;20243;-78
2023/09/22 06:07:49;;;;;;;1.90;0.90;;;22.30;59.90;;;;;;5119491;27;20283;-78
2023/09/22 06:10:16;;;;;;;1.33;1.02;;;22.30;59.90;;;;;;5119289;27;20685;-78
2023/09/22 06:12:42;;;;;;;1.58;0.90;;;22.30;59.80;;;;;;5118910;27;20719;-78
2023/09/22 06:15:12;;;;;;;1.33;1.00;;;22.30;60.40;;;;;;5102200;27;20193;-78
2023/09/22 06:17:39;;;;;;;1.10;1.08;;;22.40;59.70;;;;;;5118518;27;20292;-78
2023/09/22 06:20:13;;;;;;;1.27;0.95;;;22.40;59.70;;;;;;5118479;27;20200;-78
2023/09/22 06:22:42;;;;;;;2.38;0.90;;;22.40;59.70;;;;;;5151705;22;21693;-78
2023/09/22 06:25:09;;;;;;;1.00;0.90;;;22.40;59.60;;;;;;5018019;28;20244;-78
2023/09/22 06:27:36;;;;;;;1.50;0.98;;;22.50;59.50;;;;;;5018821;28;20204;-78
2023/09/22 06:30:10;;;;;;;1.77;1.02;;;22.50;59.50;;;;;;5018822;28;20200;-78
2023/09/22 06:32:40;;;;;;;1.65;1.08;;;22.50;59.50;;;;;;5018647;28;20226;-78
2023/09/22 06:35:08;;;;;;;1.35;0.85;;;22.50;59.40;;;;;;5018466;28;20303;-78
2023/09/22 06:37:36;;;;;;;2.00;1.00;;;22.50;60.00;;;;;;5018291;28;20789;-78
2023/09/22 06:40:10;;;;;;;1.48;0.90;;;22.50;59.40;;;;;;5018180;28;20195;-78
2023/09/22 06:42:40;;;;;;;1.35;1.00;;;22.50;59.40;;;;;;5017935;28;20191;-78
2023/09/22 06:45:10;;;;;;;1.30;0.90;;;22.50;59.40;;;;;;5018124;28;20227;-78
2023/09/22 06:47:40;;;;;;;1.10;0.90;;;22.50;59.40;;;;;;5002377;28;20196;-78
2023/09/22 06:50:09;;;;;;;1.95;1.20;;;22.50;59.40;;;;;;5018377;28;20291;-78
2023/09/22 06:52:36;;;;;;;1.08;0.93;;;22.50;59.30;;;;;;5018798;28;20204;-78
2023/09/22 06:55:03;;;;;;;1.15;1.05;;;22.50;59.90;;;;;;5017723;28;20234;-78
2023/09/22 06:57:32;;;;;;;1.65;1.08;;;22.50;59.90;;;;;;5018205;28;20200;-78
2023/09/22 06:59:59;;;;;;;1.40;1.00;;;22.50;59.30;;;;;;5017756;28;20196;-78
2023/09/22 07:02:26;;;;;;;1.42;0.90;;;22.50;59.20;;;;;;5017793;28;20717;-78
2023/09/22 07:04:54;;;;;;;2.35;0.80;;;22.50;59.00;;;;;;5017528;28;20204;-78
2023/09/22 07:07:22;;;;;;;0.73;0.73;;;22.60;59.10;;;;;;4986098;28;20581;-78
2023/09/22 07:09:49;;;;;;;0.90;0.75;;;22.50;59.00;;;;;;5001054;28;20196;-78
2023/09/22 07:12:16;;;;;;;1.50;0.88;;;22.60;59.10;;;;;;5017256;28;20200;-78
2023/09/22 07:14:43;;;;;;;2.05;1.00;;;22.60;59.10;;;;;;5017860;28;20558;-78
2023/09/22 07:17:10;;;;;;;0.82;0.82;;;22.60;59.10;;;;;;5017160;28;20262;-78
2023/09/22 07:19:39;;;;;;;0.90;0.90;;;22.60;59.00;;;;;;5018057;28;20196;-78
2023/09/22 07:22:08;;;;;;;1.10;1.00;;;22.60;59.10;;;;;;5017612;28;20196;-78
2023/09/22 07:24:35;;;;;;;1.10;1.00;;;22.60;59.10;;;;;;5017698;28;20207;-78
2023/09/22 07:27:02;;;;;;;1.10;1.00;;;22.60;59.10;;;;;;5017197;28;20323;-78
2023/09/22 07:29:29;;;;;;;2.47;1.00;;;22.60;59.10;;;;;;5017242;28;20567;-78
2023/09/22 07:31:56;;;;;;;0.90;0.90;;;22.60;59.10;;;;;;5000725;28;20639;-78
2023/09/22 07:34:23;;;;;;;1.67;0.90;;;22.60;59.10;;;;;;5016900;28;20191;-78
2023/09/22 07:36:50;;;;;;;1.80;0.98;;;22.60;59.70;;;;;;5016869;28;20220;-78
2023/09/22 07:39:19;;;;;;;1.10;1.00;;;22.60;59.00;;;;;;5017039;28;20200;-78
2023/09/22 07:41:46;;;;;;;2.55;1.10;;;22.60;59.00;;;;;;5016926;28;20266;-78
2023/09/22 07:44:14;;;;;;;0.95;0.80;;;22.60;59.00;;;;;;5016847;28;20215;-78
2023/09/22 07:46:41;;;;;;;1.45;1.15;;;22.60;59.00;;;;;;5000610;28;20219;-78
2023/09/22 07:49:08;;;;;;;0.90;0.90;;;22.60;59.00;;;;;;5016725;28;20192;-78
2023/09/22 07:51:35;;;;;;;1.10;1.00;;;22.60;58.90;;;;;;5016745;28;20250;-78
2023/09/22 07:54:02;;;;;;;1.08;0.98;;;22.70;59.00;;;;;;5016932;28;20203;-78
2023/09/22 07:56:30;;;;;;;1.00;0.90;;;22.60;58.90;;;;;;5001005;28;20212;-78
2023/09/22 07:58:58;;;;;;;2.13;1.15;;;22.70;59.00;;;;;;5016512;28;20270;-78
2023/09/22 08:01:25;;;;;;;0.90;0.90;;;22.60;58.90;;;;;;5007989;28;20181;-78
2023/09/22 08:03:53;;;;;;;1.58;1.00;;;22.60;58.90;;;;;;5016972;28;20200;-78
2023/09/22 08:06:20;;;;;;;1.58;0.85;;;22.60;58.90;;;;;;5016131;28;20285;-78
2023/09/22 08:08:49;;;;;;;2.03;1.10;;;22.70;59.00;;;;;;5016434;28;20292;-78
2023/09/22 08:11:17;;;;;;;1.35;0.93;;;22.60;58.90;;;;;;5016431;28;20286;-78
2023/09/22 08:13:45;;;;;;;0.93;0.93;;;22.70;59.00;;;;;;5016950;28;20204;-78
2023/09/22 08:16:13;;;;;;;1.40;1.00;;;22.60;58.90;;;;;;5016815;28;20226;-78
2023/09/22 08:18:40;;;;;;;1.17;1.00;;;22.60;58.90;;;;;;5016689;28;20296;-78
2023/09/22 08:21:07;;;;;;;1.00;0.90;;;22.60;59.00;;;;;;5016534;28;20577;-78
2023/09/22 08:23:34;;;;;;;1.13;0.95;;;22.60;59.00;;;;;;5016324;28;20212;-78
2023/09/22 08:26:05;;;;;;;0.90;0.88;;;22.60;58.90;;;;;;4999854;28;20295;-78
2023/09/22 08:28:32;;;;;;;1.10;1.00;;;22.60;59.10;;;;;;5016339;28;20366;-78
2023/09/22 08:31:00;;;;;;;0.98;0.98;;;22.60;59.00;;;;;;5016116;28;20282;-78
2023/09/22 08:33:29;;;;;;;1.38;1.08;;;22.60;59.00;;;;;;5016926;28;20266;-78
2023/09/22 08:35:56;;;;;;;0.90;0.90;;;22.70;59.10;;;;;;5016007;28;20578;-78
2023/09/22 08:38:24;;;;;;;1.17;0.90;;;22.70;59.10;;;;;;5015973;28;20207;-79
2023/09/22 08:40:51;;;;;;;2.35;1.10;;;22.70;58.90;;;;;;5015870;28;20204;-79
2023/09/22 08:43:18;;;;;;;1.02;0.93;;;22.80;58.80;;;;;;4999649;28;20196;-79
2023/09/22 08:45:45;;;;;;;1.05;1.02;;;22.90;58.70;;;;;;5017799;28;20223;-79
2023/09/22 08:48:14;;;;;;;1.00;1.00;;;22.90;58.50;;;;;;5019900;28;20207;-79
2023/09/22 08:50:41;;;;;;;1.63;1.00;;;23.00;58.40;;;;;;5019697;28;20643;-79
2023/09/22 08:53:08;;;;;;;1.30;1.20;;;23.00;58.40;;;;;;5019674;28;20196;-79
2023/09/22 08:55:35;;;;;;;1.33;1.05;;;23.00;58.20;;;;;;5019814;28;20767;-79
2023/09/22 08:58:03;;;;;;;1.15;1.00;;;23.10;58.20;;;;;;5019895;28;20203;-79
2023/09/22 09:00:30;;;;;;;1.75;0.90;;;23.10;58.10;;;;;;5003396;28;20551;-79
2023/09/22 09:02:58;;;;;;;1.98;1.10;;;23.10;58.00;;;;;;5019470;28;20655;-79
2023/09/22 09:05:28;;;;;;;0.98;0.98;;;23.20;58.00;;;;;;5020345;28;20254;-79
2023/09/22 09:07:55;;;;;;;0.98;0.98;;;23.30;57.90;;;;;;5019452;28;20192;-79
2023/09/22 09:10:30;;;;;;;1.27;1.10;;;23.30;57.70;;;;;;5019394;28;20199;-79
2023/09/22 09:12:57;;;;;;;1.08;0.90;;;23.30;57.70;;;;;;5019783;28;20630;-79
2023/09/22 09:15:26;;;;;;;1.02;0.90;;;23.30;57.60;;;;;;5019505;28;20220;-79
2023/09/22 09:18:12;;;;;;;2.15;1.10;;;23.40;57.50;;;;;;5019427;28;20239;-79
2023/09/22 09:20:41;;;;;;;1.27;1.00;;;23.40;57.50;;;;;;5019350;28;20196;-79
2023/09/22 09:23:16;;;;;;;1.25;1.05;;;23.40;57.60;;;;;;5019293;28;20262;-79
2023/09/22 09:25:44;;;;;;;1.02;0.90;;;23.40;57.70;;;;;;5020216;28;20226;-79
2023/09/22 09:28:12;;;;;;;0.93;0.90;;;23.30;57.50;;;;;;5019118;28;20200;-79
2023/09/22 09:30:39;;;;;;;1.23;0.90;;;23.40;57.60;;;;;;5019301;28;20200;-79
2023/09/22 09:33:09;;;;;;;1.45;1.20;;;23.40;57.70;;;;;;5002858;28;20200;-79
2023/09/22 09:35:37;;;;;;;1.00;0.90;;;23.40;57.70;;;;;;5003081;28;20319;-79
2023/09/22 09:38:05;;;;;;;0.90;0.90;;;23.30;57.60;;;;;;5003044;28;20196;-79
2023/09/22 09:40:36;;;;;;;0.88;0.88;;;23.40;57.70;;;;;;5018909;28;20552;-79
2023/09/22 09:43:06;;;;;;;1.00;0.90;;;23.30;57.60;;;;;;5019635;28;20218;-79
2023/09/22 09:45:34;;;;;;;1.02;0.80;;;23.40;58.30;;;;;;5019109;28;20216;-79
2023/09/22 09:48:01;;;;;;;1.58;1.13;;;23.40;57.70;;;;;;5019057;28;20677;-79
2023/09/22 09:50:28;;;;;;;0.90;0.80;;;23.40;57.80;;;;;;5019108;28;20192;-79
2023/09/22 09:52:56;;;;;;;0.82;0.80;;;23.40;57.70;;;;;;5003020;28;20196;-79
2023/09/22 09:55:25;;;;;;;1.70;1.02;;;23.40;57.70;;;;;;5018765;28;20629;-80
2023/09/22 09:57:53;;;;;;;1.00;0.90;;;23.30;57.60;;;;;;5019410;28;20196;-80
2023/09/22 10:00:20;;;;;;;1.58;0.90;;;23.40;58.30;;;;;;5019843;28;20200;-80
2023/09/22 10:02:48;;;;;;;0.85;0.68;;;23.40;57.70;;;;;;5023655;28;20211;-80
2023/09/22 10:05:16;;;;;;;1.98;0.90;;;23.40;57.70;;;;;;5023008;28;20220;-80
2023/09/22 10:07:43;;;;;;;1.13;1.00;;;23.40;57.70;;;;;;5025324;28;20212;-80
2023/09/22 10:10:11;;;;;;;0.95;0.80;;;23.40;57.70;;;;;;5020753;28;20230;-80
2023/09/22 10:12:40;;;;;;;0.80;0.80;;;23.40;57.60;;;;;;5020499;28;20611;-80
2023/09/22 10:15:08;;;;;;;1.25;0.90;;;23.40;57.50;;;;;;5019936;28;20254;-80
2023/09/22 10:17:35;;;;;;;1.20;1.00;;;23.40;57.60;;;;;;5019370;28;20226;-80
2023/09/22 10:20:06;;;;;;;1.08;0.98;;;23.50;57.50;;;;;;5018241;28;20255;-80
2023/09/22 10:22:33;;;;;;;1.20;1.10;;;23.50;57.40;;;;;;5039089;28;20180;-80
2023/09/22 10:25:22;;;;;;;0.98;0.73;;;23.50;57.30;;;;;;5021068;28;20529;-80
2023/09/22 10:28:04;;;;;;;0.98;0.90;;;23.60;57.10;;;;;;5014178;28;20310;-80
2023/09/22 10:31:01;;;;;;;1.00;0.90;;;23.70;57.00;;;;;;5021269;28;20196;-80
2023/09/22 10:33:30;;;;;;;0.82;0.82;;;23.80;56.80;;;;;;5021053;28;20188;-80
2023/09/22 10:35:57;;;;;;;1.00;0.90;;;23.90;56.60;;;;;;5020732;28;20706;-80
2023/09/22 10:38:24;;;;;;;3.00;1.00;;;24.00;56.40;;;;;;5021601;28;20571;-80
2023/09/22 10:41:05;;;;;;;0.93;0.88;;;24.00;56.30;;;;;;5020746;28;20204;-80
2023/09/22 10:43:34;;;;;;;1.10;0.70;;;24.10;56.20;;;;;;5021143;28;20229;-80
2023/09/22 10:46:02;;;;;;;0.80;0.80;;;24.20;56.20;;;;;;5020834;28;20228;-80
2023/09/22 10:48:34;;;;;;;1.00;0.75;;;24.20;56.00;;;;;;5019232;28;20207;-79
2023/09/22 10:51:02;;;;;;;0.82;0.82;;;24.20;55.90;;;;;;5018616;28;20200;-79
2023/09/22 10:53:32;;;;;;;0.70;0.70;;;24.30;55.70;;;;;;5017586;28;20566;-79
2023/09/22 10:56:00;;;;;;;0.80;0.80;;;24.30;55.50;;;;;;5001598;28;20223;-79
2023/09/22 10:58:53;;;;;;;1.08;0.90;;;24.40;55.50;;;;;;5035825;28;20190;-79
2023/09/22 11:01:21;;;;;;;1.60;1.00;;;24.40;55.50;;;;;;5035360;28;20246;-79
2023/09/22 11:03:51;;;;;;;1.02;0.80;;;24.40;55.40;;;;;;5017269;28;20207;-79
2023/09/22 11:06:18;;;;;;;0.85;0.73;;;24.40;55.40;;;;;;5017444;28;20219;-79
2023/09/22 11:08:47;;;;;;;0.90;0.90;;;24.40;55.40;;;;;;5016462;28;20223;-79
2023/09/22 11:11:16;;;;;;;1.15;0.80;;;24.40;55.40;;;;;;5017467;28;20199;-79
2023/09/22 11:13:52;;;;;;;0.85;0.85;;;24.40;55.40;;;;;;5017381;28;20203;-79
2023/09/22 11:16:20;;;;;;;0.88;0.85;;;24.40;55.40;;;;;;5017943;28;20341;-79
2023/09/22 11:18:47;;;;;;;1.20;1.10;;;24.40;55.40;;;;;;5017543;28;20199;-79
2023/09/22 11:21:13;;;;;;;0.98;0.88;;;24.40;55.20;;;;;;5000900;28;20724;-79
2023/09/22 11:23:40;;;;;;;0.93;0.88;;;24.40;55.20;;;;;;5017135;28;20230;-79
2023/09/22 11:26:09;;;;;;;0.93;0.85;;;24.50;55.20;;;;;;5000992;28;20238;-79
2023/09/22 11:28:36;;;;;;;0.90;0.90;;;24.40;55.20;;;;;;5017111;28;20273;-79
2023/09/22 11:31:09;;;;;;;0.70;0.70;;;24.50;55.20;;;;;;5017311;28;20199;-79
2023/09/22 11:33:37;;;;;;;1.35;0.88;;;24.50;55.10;;;;;;5016946;28;20658;-79
2023/09/22 11:36:05;;;;;;;0.98;0.90;;;24.50;55.00;;;;;;5017803;28;20220;-79
2023/09/22 11:38:32;;;;;;;0.70;0.70;;;24.50;54.90;;;;;;5017235;28;20195;-79
2023/09/22 11:41:08;;;;;;;1.10;1.00;;;24.50;54.90;;;;;;5016893;28;20279;-79
2023/09/22 11:43:39;;;;;;;0.60;0.55;;;24.50;54.80;;;;;;5034502;28;20659;-79
2023/09/22 11:46:11;;;;;;;1.45;0.90;;;24.60;54.80;;;;;;5017100;28;20710;-79
2023/09/22 11:49:00;;;;;;;0.90;0.90;;;24.50;54.70;;;;;;5034314;28;20216;-79
2023/09/22 11:51:44;;;;;;;0.95;0.80;;;24.60;54.50;;;;;;5034636;28;20219;-79
2023/09/22 11:54:12;;;;;;;0.80;0.80;;;24.70;54.50;;;;;;5017788;28;20243;-79
2023/09/22 11:56:39;;;;;;;1.10;1.00;;;24.70;54.40;;;;;;5016723;28;20220;-79
2023/09/22 11:59:07;;;;;;;0.70;0.70;;;24.70;54.30;;;;;;5016749;28;20200;-79
2023/09/22 12:01:35;;;;;;;1.17;0.88;;;24.70;54.30;;;;;;5016673;28;20196;-79
2023/09/22 12:04:02;;;;;;;0.90;0.88;;;24.70;54.20;;;;;;5016653;28;20203;-79
2023/09/22 12:06:29;;;;;;;0.90;0.90;;;24.70;54.00;;;;;;5016422;28;20215;-79
2023/09/22 12:08:56;;;;;;;0.60;0.60;;;24.80;54.00;;;;;;5000199;28;20629;-79
2023/09/22 12:11:23;;;;;;;1.05;0.90;;;24.80;54.60;;;;;;5016304;28;20287;-79
2023/09/22 12:13:50;;;;;;;1.42;1.02;;;24.80;54.00;;;;;;5016630;28;20203;-79
2023/09/22 12:16:17;;;;;;;0.70;0.70;;;24.80;54.00;;;;;;5016015;28;20223;-79
2023/09/22 12:18:45;;;;;;;0.80;0.80;;;24.80;54.00;;;;;;5016037;28;20549;-79
2023/09/22 12:21:13;;;;;;;0.90;0.90;;;24.80;54.00;;;;;;5016098;28;20210;-79
2023/09/22 12:26:31;;;;;;;1.02;1.02;;;24.80;54.00;;;;;;5071829;28;20240;-58
2023/09/22 12:28:58;;;;;;;0.82;0.82;;;24.80;54.00;;;;;;5074027;28;20715;-58
2023/09/22 12:31:25;;;;;;;0.70;0.70;;;24.80;54.00;;;;;;5075296;28;20207;-58
2023/09/22 12:33:53;;;;;;;0.70;0.70;;;24.70;53.90;;;;;;5075472;28;20220;-58
2023/09/22 12:36:20;;;;;;;1.33;0.70;;;24.70;53.90;;;;;;5092161;28;20281;-58
2023/09/22 12:38:48;;;;;;;0.77;0.75;;;24.70;53.90;;;;;;5075083;28;20209;-58
2023/09/22 12:41:15;;;;;;;0.98;0.77;;;24.70;53.80;;;;;;5075094;28;20198;-58
2023/09/22 12:43:42;;;;;;;1.30;0.70;;;24.70;53.90;;;;;;5075036;28;20215;-58
2023/09/22 12:46:09;;;;;;;0.80;0.80;;;24.70;53.90;;;;;;5093102;28;20650;-58
2023/09/22 12:48:39;;;;;;;1.33;0.70;;;24.70;53.80;;;;;;5093148;28;20217;-58
2023/09/22 12:51:08;;;;;;;1.13;0.90;;;24.70;53.90;;;;;;5093025;28;20329;-58
2023/09/22 12:53:34;;;;;;;0.70;0.60;;;24.70;53.80;;;;;;5091843;28;20247;-58
2023/09/22 12:56:01;;;;;;;0.90;0.75;;;24.70;53.90;;;;;;5075782;28;20201;-58
2023/09/22 12:58:29;;;;;;;0.77;0.77;;;24.70;53.90;;;;;;5074886;28;20215;-58